createdAt,value
2022-11-25T00:02:14.067Z,70.82
2022-11-25T00:04:45.175Z,70.83
2022-11-25T00:07:16.040Z,70.60
2022-11-25T00:09:46.859Z,70.71
2022-11-25T00:12:17.746Z,70.78
2022-11-25T00:14:49.149Z,70.98
2022-11-25T00:17:19.978Z,70.88
2022-11-25T00:19:51.093Z,70.75
2022-11-25T00:22:22.236Z,70.77
2022-11-25T00:24:53.015Z,70.98
2022-11-25T00:27:23.839Z,70.90
2022-11-25T00:29:54.678Z,70.81
2022-11-25T00:32:25.607Z,70.72
2022-11-25T00:34:56.407Z,70.76
2022-11-25T00:37:27.269Z,70.83
2022-11-25T00:39:58.124Z,70.72
2022-11-25T00:42:46.776Z,70.48
2022-11-25T00:45:17.790Z,70.70
2022-11-25T00:47:49.093Z,70.84
2022-11-25T00:50:22.423Z,70.83
2022-11-25T00:52:53.155Z,70.89
2022-11-25T00:55:23.926Z,70.83
2022-11-25T00:57:54.761Z,70.71
2022-11-25T01:00:25.637Z,70.71
2022-11-25T01:02:56.416Z,70.61
2022-11-25T01:05:27.185Z,70.60
2022-11-25T01:07:58.774Z,70.64
2022-11-25T01:10:29.507Z,70.67
2022-11-25T01:13:00.398Z,70.56
2022-11-25T01:15:31.197Z,70.53
2022-11-25T01:18:01.988Z,70.66
2022-11-25T01:20:32.785Z,70.69
2022-11-25T01:23:03.577Z,70.69
2022-11-25T01:25:37.718Z,70.83
2022-11-25T01:28:09.018Z,70.72
2022-11-25T01:30:41.310Z,70.92
2022-11-25T01:33:12.371Z,70.79
2022-11-25T01:35:43.127Z,70.73
2022-11-25T01:38:13.896Z,70.79
2022-11-25T01:40:44.848Z,70.66
2022-11-25T01:43:17.406Z,70.57
2022-11-25T01:45:48.624Z,70.78
2022-11-25T01:48:23.327Z,70.90
2022-11-25T01:50:55.670Z,70.84
2022-11-25T01:53:26.722Z,70.59
2022-11-25T01:56:02.271Z,70.87
2022-11-25T01:58:38.420Z,70.93
2022-11-25T02:01:10.269Z,70.76
2022-11-25T02:03:46.373Z,70.65
2022-11-25T02:06:22.704Z,70.72
2022-11-25T02:08:57.082Z,70.82
2022-11-25T02:11:31.981Z,70.85
2022-11-25T02:14:03.951Z,71.11
2022-11-25T02:16:35.004Z,70.88
2022-11-25T02:19:10.502Z,70.99
2022-11-25T02:21:46.945Z,70.67
2022-11-25T02:24:24.197Z,70.78
2022-11-25T02:26:55.388Z,71.04
2022-11-25T02:29:26.631Z,70.91
2022-11-25T02:31:57.777Z,71.01
2022-11-25T02:34:28.992Z,70.86
2022-11-25T02:37:00.296Z,70.79
2022-11-25T02:39:31.494Z,70.70
2022-11-25T02:42:02.755Z,70.59
2022-11-25T02:44:34.583Z,70.56
2022-11-25T02:47:05.682Z,70.87
2022-11-25T02:49:36.555Z,70.78
2022-11-25T03:02:59.835Z,70.95
2022-11-25T03:05:30.903Z,70.95
2022-11-25T03:08:03.851Z,71.13
2022-11-25T03:10:35.312Z,71.14
2022-11-25T03:13:08.367Z,70.93
2022-11-25T03:15:43.569Z,71.04
2022-11-25T03:18:14.369Z,70.93
2022-11-25T03:20:45.997Z,71.18
2022-11-25T03:23:16.851Z,71.17
2022-11-25T03:25:47.682Z,71.13
2022-11-25T03:28:18.720Z,71.14
2022-11-25T03:30:49.789Z,71.40
2022-11-25T03:33:20.701Z,71.26
2022-11-25T03:35:52.231Z,71.17
2022-11-25T03:38:24.380Z,71.23
2022-11-25T03:40:55.192Z,71.20
2022-11-25T03:43:26.187Z,71.32
2022-11-25T03:45:57.065Z,71.13
2022-11-25T03:48:28.551Z,70.92
2022-11-25T03:50:59.414Z,70.99
2022-11-25T03:53:31.169Z,71.13
2022-11-25T03:56:04.015Z,71.16
2022-11-25T03:58:34.954Z,71.13
2022-11-25T04:01:07.449Z,71.17
2022-11-25T04:03:38.389Z,71.15
2022-11-25T04:06:09.511Z,71.18
2022-11-25T04:08:40.486Z,71.27
2022-11-25T04:11:12.122Z,71.28
2022-11-25T04:13:46.115Z,71.07
2022-11-25T04:16:24.627Z,71.04
2022-11-25T04:18:55.918Z,71.08
2022-11-25T04:21:27.501Z,71.06
2022-11-25T04:23:58.301Z,70.99
2022-11-25T04:26:29.228Z,71.05
2022-11-25T04:29:00.061Z,71.05
2022-11-25T04:31:31.539Z,71.14
2022-11-25T04:34:02.958Z,71.53
2022-11-25T04:36:34.300Z,71.26
2022-11-25T04:39:05.811Z,71.44
2022-11-25T04:41:37.728Z,71.27
2022-11-25T04:44:08.683Z,71.19
2022-11-25T04:46:44.198Z,71.34
2022-11-25T04:49:15.222Z,71.14
2022-11-25T04:51:46.104Z,71.30
2022-11-25T04:54:17.747Z,71.43
2022-11-25T04:56:49.155Z,71.35
2022-11-25T04:59:38.460Z,71.29
2022-11-25T05:02:13.441Z,71.09
2022-11-25T05:04:47.584Z,71.21
2022-11-25T05:07:24.106Z,71.41
2022-11-25T05:09:57.421Z,71.44
2022-11-25T05:12:41.298Z,71.24
2022-11-25T05:15:16.613Z,71.14
2022-11-25T05:17:49.821Z,71.01
2022-11-25T05:20:24.369Z,71.32
2022-11-25T05:22:55.274Z,71.20
2022-11-25T05:25:27.483Z,71.32
2022-11-25T05:28:26.626Z,71.47
2022-11-25T05:30:57.919Z,71.54
2022-11-25T05:33:29.251Z,71.74
2022-11-25T05:36:02.628Z,71.54
2022-11-25T05:38:45.670Z,71.57
2022-11-25T05:41:20.329Z,71.67
2022-11-25T05:43:51.823Z,71.19
2022-11-25T05:46:22.937Z,71.46
2022-11-25T05:48:57.630Z,71.25
2022-11-25T05:51:30.702Z,71.41
2022-11-25T05:54:03.559Z,71.32
2022-11-25T05:56:34.827Z,71.56
2022-11-25T05:59:24.539Z,71.64
2022-11-25T06:02:15.622Z,71.49
2022-11-25T06:04:46.669Z,71.57
2022-11-25T06:07:17.597Z,71.47
2022-11-25T06:09:49.327Z,71.57
2022-11-25T06:12:21.955Z,71.45
2022-11-25T06:14:53.732Z,71.57
2022-11-25T06:17:24.539Z,71.51
2022-11-25T06:20:03.490Z,71.55
2022-11-25T06:22:34.820Z,71.36
2022-11-25T06:25:06.348Z,71.05
2022-11-25T06:27:57.280Z,71.30
2022-11-25T06:30:29.203Z,71.51
2022-11-25T06:33:18.436Z,71.46
2022-11-25T06:35:52.293Z,71.46
2022-11-25T06:38:23.148Z,71.24
2022-11-25T06:40:56.434Z,71.40
2022-11-25T06:43:30.976Z,71.41
2022-11-25T06:46:07.761Z,71.07
2022-11-25T06:48:39.525Z,70.90
2022-11-25T06:51:13.435Z,71.24
2022-11-25T06:53:44.528Z,71.20
2022-11-25T06:56:18.338Z,71.20
2022-11-25T06:58:50.354Z,70.88
2022-11-25T07:01:23.927Z,70.78
2022-11-25T07:03:57.577Z,70.87
2022-11-25T07:06:28.954Z,71.01
2022-11-25T07:09:00.489Z,71.02
2022-11-25T07:11:33.224Z,71.04
2022-11-25T07:14:06.786Z,70.96
2022-11-25T07:16:38.707Z,71.09
2022-11-25T07:19:11.302Z,71.29
2022-11-25T07:21:43.507Z,71.16
2022-11-25T07:24:16.564Z,71.12
2022-11-25T07:26:48.411Z,71.20
2022-11-25T07:32:13.304Z,71.04
2022-11-25T07:34:44.500Z,71.12
2022-11-25T07:37:15.910Z,71.17
2022-11-25T07:39:46.761Z,71.32
2022-11-25T07:42:17.889Z,71.44
2022-11-25T07:44:49.821Z,71.43
2022-11-25T07:47:44.857Z,71.43
2022-11-25T07:50:16.351Z,71.44
2022-11-25T07:52:50.505Z,71.42
2022-11-25T07:55:21.591Z,71.14
2022-11-25T07:57:52.490Z,71.22
2022-11-25T08:00:24.711Z,71.11
2022-11-25T08:02:57.004Z,71.26
2022-11-25T08:05:27.885Z,71.12
2022-11-25T08:07:58.882Z,71.02
2022-11-25T08:10:29.842Z,70.99
2022-11-25T08:13:00.802Z,70.94
2022-11-25T08:15:33.249Z,70.94
2022-11-25T08:18:04.173Z,71.08
2022-11-25T08:20:35.091Z,70.94
2022-11-25T08:23:05.909Z,71.07
2022-11-25T08:25:47.437Z,71.28
2022-11-25T08:28:21.400Z,71.39
2022-11-25T08:30:52.616Z,70.99
2022-11-25T08:33:24.000Z,71.34
2022-11-25T08:35:57.308Z,70.85
2022-11-25T08:38:29.189Z,70.85
2022-11-25T08:41:00.612Z,70.93
2022-11-25T08:43:31.847Z,70.74
2022-11-25T08:46:02.798Z,70.86
2022-11-25T08:48:34.165Z,70.92
2022-11-25T08:51:08.073Z,71.15
2022-11-25T08:53:39.566Z,71.15
2022-11-25T08:56:11.476Z,71.34
2022-11-25T08:58:42.941Z,71.22
2022-11-25T09:01:14.231Z,71.07
2022-11-25T09:03:47.839Z,71.29
2022-11-25T09:06:20.282Z,71.18
2022-11-25T09:08:51.241Z,71.28
2022-11-25T09:11:22.274Z,71.14
2022-11-25T09:13:53.336Z,70.94
2022-11-25T09:16:26.832Z,70.53
2022-11-25T09:19:00.145Z,70.61
2022-11-25T09:21:30.970Z,70.79
2022-11-25T09:24:02.443Z,70.37
2022-11-25T09:26:35.854Z,70.67
2022-11-25T09:29:10.087Z,70.47
2022-11-25T09:31:42.124Z,70.67
2022-11-25T09:34:13.239Z,70.83
2022-11-25T09:36:46.416Z,70.89
2022-11-25T09:39:17.279Z,70.93
2022-11-25T09:42:19.594Z,70.89
2022-11-25T09:45:21.877Z,70.81
2022-11-25T09:48:06.374Z,70.68
2022-11-25T09:50:48.807Z,71.13
2022-11-25T09:53:32.312Z,71.01
2022-11-25T09:56:09.701Z,71.15
2022-11-25T09:58:48.000Z,70.75
2022-11-25T10:01:24.089Z,70.94
2022-11-25T10:03:58.897Z,70.64
2022-11-25T10:06:33.494Z,71.05
2022-11-25T10:09:12.761Z,71.20
2022-11-25T10:11:52.057Z,71.18
2022-11-25T10:14:31.290Z,71.34
2022-11-25T10:17:12.771Z,71.11
2022-11-25T10:19:55.328Z,71.13
2022-11-25T10:22:30.994Z,70.98
2022-11-25T10:25:04.816Z,70.83
2022-11-25T10:27:54.272Z,70.46
2022-11-25T10:30:27.154Z,70.46
2022-11-25T10:33:07.672Z,70.61
2022-11-25T10:35:42.654Z,70.58
2022-11-25T10:38:21.109Z,70.42
2022-11-25T10:40:53.732Z,70.51
2022-11-25T10:43:28.701Z,70.60
2022-11-25T10:46:15.898Z,70.44
2022-11-25T10:49:01.051Z,70.19
2022-11-25T10:51:44.684Z,70.59
2022-11-25T10:54:27.218Z,70.56
2022-11-25T10:57:00.818Z,70.50
2022-11-25T10:59:37.785Z,70.39
2022-11-25T11:02:22.412Z,70.15
2022-11-25T11:05:00.493Z,70.33
2022-11-25T11:07:37.361Z,70.33
2022-11-25T11:10:19.075Z,70.22
2022-11-25T11:13:10.970Z,70.14
2022-11-25T11:15:49.568Z,69.66
2022-11-25T11:18:28.687Z,69.67
2022-11-25T11:21:01.719Z,69.76
2022-11-25T11:23:32.666Z,70.06
2022-11-25T11:26:06.393Z,69.80
2022-11-25T11:28:43.471Z,70.02
2022-11-25T11:31:25.237Z,69.99
2022-11-25T11:34:04.871Z,70.10
2022-11-25T11:36:49.697Z,69.71
2022-11-25T11:40:00.293Z,69.86
2022-11-25T11:42:41.568Z,70.20
2022-11-25T11:45:30.765Z,70.02
2022-11-25T11:48:12.450Z,69.90
2022-11-25T11:50:49.511Z,70.11
2022-11-25T11:53:31.598Z,69.73
2022-11-25T11:59:42.676Z,69.69
2022-11-25T12:02:32.735Z,69.48
2022-11-25T12:05:17.068Z,69.71
2022-11-25T12:07:56.097Z,69.82
2022-11-25T12:10:50.424Z,70.18
2022-11-25T12:13:24.439Z,70.20
2022-11-25T12:16:00.133Z,70.51
2022-11-25T12:18:53.931Z,70.37
2022-11-25T12:21:45.392Z,70.21
2022-11-25T12:24:27.320Z,70.74
2022-11-25T12:27:03.761Z,70.82
2022-11-25T12:29:41.052Z,70.75
2022-11-25T12:32:41.541Z,70.27
2022-11-25T12:35:25.389Z,70.28
2022-11-25T12:38:04.072Z,70.09
2022-11-25T12:40:43.756Z,70.32
2022-11-25T12:43:27.289Z,70.40
2022-11-25T12:46:09.185Z,70.28
2022-11-25T12:48:43.172Z,70.28
2022-11-25T12:51:25.847Z,70.11
2022-11-25T12:54:07.087Z,70.77
2022-11-25T12:56:53.672Z,70.60
2022-11-25T12:59:44.717Z,70.53
2022-11-25T13:02:37.053Z,70.49
2022-11-25T13:05:40.427Z,70.80
2022-11-25T13:08:25.429Z,70.87
2022-11-25T13:11:24.132Z,70.44
2022-11-25T13:14:02.087Z,70.88
2022-11-25T13:16:34.964Z,70.97
2022-11-25T13:19:12.602Z,71.16
2022-11-25T13:22:07.660Z,70.97
2022-11-25T13:24:43.540Z,70.93
2022-11-25T13:27:33.017Z,71.30
2022-11-25T13:30:05.385Z,71.24
2022-11-25T13:32:43.036Z,71.71
2022-11-25T13:35:38.158Z,71.61
2022-11-25T13:38:48.492Z,71.55
2022-11-25T13:41:42.085Z,71.52
2022-11-25T13:44:32.299Z,71.77
2022-11-25T13:47:36.453Z,71.68
2022-11-25T13:50:22.756Z,71.54
2022-11-25T13:53:01.803Z,71.81
2022-11-25T13:55:42.662Z,71.76
2022-11-25T13:58:27.282Z,71.79
2022-11-25T14:01:29.397Z,71.66
2022-11-25T14:04:06.638Z,72.02
2022-11-25T14:07:17.031Z,72.00
2022-11-25T14:10:10.741Z,72.17
2022-11-25T14:12:54.747Z,72.35
2022-11-25T14:15:42.069Z,72.09
2022-11-25T14:19:17.319Z,72.29
2022-11-25T14:21:51.703Z,72.12
2022-11-25T14:24:38.390Z,72.44
2022-11-25T14:27:21.859Z,72.37
2022-11-25T14:29:57.866Z,72.36
2022-11-25T14:32:35.391Z,72.64
2022-11-25T14:35:10.340Z,72.68
2022-11-25T14:37:46.977Z,72.62
2022-11-25T14:40:23.091Z,72.46
2022-11-25T14:42:59.592Z,72.37
2022-11-25T14:45:33.555Z,72.71
2022-11-25T14:48:18.332Z,72.88
2022-11-25T14:51:00.860Z,73.00
2022-11-25T14:53:43.009Z,72.91
2022-11-25T14:56:23.183Z,72.91
2022-11-25T14:58:57.016Z,72.72
2022-11-25T15:01:30.030Z,72.78
2022-11-25T15:04:21.252Z,72.78
2022-11-25T15:06:53.990Z,72.78
2022-11-25T15:09:32.593Z,72.81
2022-11-25T15:12:06.903Z,73.11
2022-11-25T15:14:42.892Z,73.01
2022-11-25T15:17:31.033Z,73.49
2022-11-25T15:20:12.660Z,73.14
2022-11-25T15:22:58.345Z,73.54
2022-11-25T15:25:39.186Z,73.30
2022-11-25T15:28:37.232Z,73.61
2022-11-25T15:31:33.189Z,73.33
2022-11-25T15:34:25.787Z,73.61
2022-11-25T15:37:10.397Z,73.58
2022-11-25T15:40:25.447Z,73.76
2022-11-25T15:42:57.648Z,73.59
2022-11-25T15:45:38.218Z,73.45
2022-11-25T15:48:17.971Z,73.38
2022-11-25T15:51:21.215Z,73.44
2022-11-25T15:53:57.889Z,73.53
2022-11-25T15:56:30.160Z,73.39
2022-11-25T15:59:02.343Z,73.52
2022-11-25T16:01:42.837Z,73.18
2022-11-25T16:04:21.556Z,72.98
2022-11-25T16:06:57.825Z,72.74
2022-11-25T16:09:33.483Z,72.97
2022-11-25T16:12:19.879Z,72.79
2022-11-25T16:14:51.029Z,72.48
2022-11-25T16:17:22.239Z,72.56
2022-11-25T16:19:53.320Z,72.43
2022-11-25T16:22:24.627Z,72.46
2022-11-25T16:25:02.132Z,72.45
2022-11-25T16:27:38.525Z,72.56
2022-11-25T16:30:20.954Z,72.54
2022-11-25T16:32:51.965Z,72.57
2022-11-25T16:35:23.722Z,72.53
2022-11-25T16:38:00.255Z,72.50
2022-11-25T16:40:31.569Z,72.67
2022-11-25T16:43:03.774Z,72.66
2022-11-25T16:45:35.055Z,72.90
2022-11-25T16:48:17.418Z,72.87
2022-11-25T16:50:49.400Z,73.00
2022-11-25T16:53:20.914Z,73.05
2022-11-25T16:55:52.286Z,72.57
2022-11-25T16:58:25.347Z,72.73
2022-11-25T17:00:57.709Z,73.09
2022-11-25T17:03:28.851Z,73.07
2022-11-25T17:06:00.091Z,73.26
2022-11-25T17:08:31.504Z,72.97
2022-11-25T17:11:03.219Z,72.98
2022-11-25T17:13:34.482Z,73.16
2022-11-25T17:16:06.772Z,72.94
2022-11-25T17:18:38.839Z,72.83
2022-11-25T17:21:12.804Z,72.85
2022-11-25T17:23:44.568Z,72.65
2022-11-25T17:26:20.249Z,72.83
2022-11-25T17:28:55.973Z,72.73
2022-11-25T17:31:30.234Z,73.14
2022-11-25T17:34:03.932Z,72.79
2022-11-25T17:36:35.116Z,73.04
2022-11-25T17:39:06.206Z,73.26
2022-11-25T17:41:47.166Z,73.16
2022-11-25T17:44:26.651Z,72.96
2022-11-25T17:47:00.201Z,72.94
2022-11-25T17:49:31.288Z,73.25
2022-11-25T17:52:02.483Z,73.04
2022-11-25T17:54:33.511Z,72.94
2022-11-25T17:57:05.370Z,73.09
2022-11-25T17:59:37.676Z,73.41
2022-11-25T18:02:19.817Z,73.56
2022-11-25T18:04:51.228Z,73.43
2022-11-25T18:07:22.643Z,73.50
2022-11-25T18:09:54.046Z,73.26
2022-11-25T18:12:29.257Z,73.38
2022-11-25T18:14:58.945Z,73.66
2022-11-25T18:17:30.085Z,73.36
2022-11-25T18:20:04.189Z,73.34
2022-11-25T18:22:35.084Z,73.66
2022-11-25T18:25:09.502Z,73.59
2022-11-25T18:27:40.945Z,73.85
2022-11-25T18:30:20.152Z,73.47
2022-11-25T18:32:51.669Z,73.25
2022-11-25T18:35:25.355Z,73.22
2022-11-25T18:37:57.040Z,73.37
2022-11-25T18:40:30.186Z,73.54
2022-11-25T18:43:04.079Z,73.65
2022-11-25T18:45:39.076Z,73.56
2022-11-25T18:48:16.964Z,73.65
2022-11-25T18:50:49.952Z,73.77
2022-11-25T18:53:21.116Z,73.77
2022-11-25T18:55:52.575Z,74.09
2022-11-25T18:58:54.941Z,74.33
2022-11-25T19:01:49.450Z,74.44
2022-11-25T19:04:21.313Z,74.31
2022-11-25T19:06:52.534Z,74.53
2022-11-25T19:09:24.936Z,74.53
2022-11-25T19:11:59.200Z,74.19
2022-11-25T19:14:35.125Z,74.41
2022-11-25T19:17:19.603Z,74.50
2022-11-25T19:19:52.722Z,74.48
2022-11-25T19:22:24.815Z,74.38
2022-11-25T19:24:59.330Z,74.50
2022-11-25T19:27:33.572Z,74.71
2022-11-25T19:30:07.293Z,74.59
2022-11-25T19:32:38.800Z,74.58
2022-11-25T19:35:15.731Z,74.72
2022-11-25T19:37:54.389Z,74.72
2022-11-25T19:40:25.912Z,74.40
2022-11-25T19:42:57.292Z,74.65
2022-11-25T19:45:31.989Z,74.75
2022-11-25T19:48:08.005Z,74.51
2022-11-25T19:50:42.124Z,74.75
2022-11-25T19:53:18.369Z,75.11
2022-11-25T19:55:49.948Z,75.09
2022-11-25T19:58:22.098Z,75.32
2022-11-25T20:01:06.499Z,75.15
2022-11-25T20:03:47.812Z,74.99
2022-11-25T20:06:22.249Z,75.19
2022-11-25T20:09:04.855Z,75.06
2022-11-25T20:11:40.955Z,75.11
2022-11-25T20:14:12.452Z,74.82
2022-11-25T20:16:46.215Z,74.75
2022-11-25T20:19:20.670Z,74.90
2022-11-25T20:21:53.777Z,74.80
2022-11-25T20:24:26.721Z,74.64
2022-11-25T20:27:00.335Z,74.85
2022-11-25T20:29:31.274Z,74.92
2022-11-25T20:32:09.990Z,75.19
2022-11-25T20:34:42.432Z,75.30
2022-11-25T20:37:16.245Z,75.66
2022-11-25T20:39:48.864Z,75.39
2022-11-25T20:42:21.591Z,75.61
2022-11-25T20:44:57.842Z,75.47
2022-11-25T20:47:30.286Z,75.40
2022-11-25T20:50:01.582Z,75.31
2022-11-25T20:52:35.122Z,75.07
2022-11-25T20:55:16.627Z,74.91
2022-11-25T20:57:48.634Z,75.17
2022-11-25T21:00:23.075Z,75.05
2022-11-25T21:02:55.418Z,75.17
2022-11-25T21:05:27.631Z,75.14
2022-11-25T21:07:58.582Z,75.17
2022-11-25T21:10:34.780Z,74.98
2022-11-25T21:13:15.265Z,75.02
2022-11-25T21:15:46.583Z,75.20
2022-11-25T21:18:18.075Z,74.85
2022-11-25T21:20:49.842Z,74.80
2022-11-25T21:23:25.404Z,74.70
2022-11-25T21:26:05.183Z,74.73
2022-11-25T21:28:42.107Z,74.55
2022-11-25T21:31:17.806Z,74.78
2022-11-25T21:33:50.279Z,74.66
2022-11-25T21:36:24.965Z,74.87
2022-11-25T21:39:03.452Z,74.96
2022-11-25T21:41:34.832Z,74.75
2022-11-25T21:44:07.697Z,74.92
2022-11-25T21:46:39.138Z,74.74
2022-11-25T21:49:14.287Z,74.84
2022-11-25T21:51:45.370Z,75.14
2022-11-25T21:54:16.267Z,74.80
2022-11-25T21:56:47.667Z,75.21
2022-11-25T21:59:21.619Z,74.89
2022-11-25T22:01:53.108Z,74.96
2022-11-25T22:04:25.087Z,74.86
2022-11-25T22:06:56.317Z,75.07
2022-11-25T22:09:28.038Z,74.90
2022-11-25T22:11:59.474Z,74.89
2022-11-25T22:14:37.101Z,75.00
2022-11-25T22:17:14.628Z,74.69
2022-11-25T22:19:46.386Z,74.72
2022-11-25T22:22:18.108Z,74.66
2022-11-25T22:24:49.093Z,74.94
2022-11-25T22:27:23.713Z,74.97
2022-11-25T22:29:55.690Z,74.97
2022-11-25T22:32:28.320Z,75.10
2022-11-25T22:34:59.810Z,75.03
2022-11-25T22:37:33.821Z,75.04
2022-11-25T22:40:05.521Z,75.26
2022-11-25T22:42:36.941Z,75.12
2022-11-25T22:45:18.823Z,75.12
2022-11-25T22:47:50.364Z,74.96
2022-11-25T22:50:25.498Z,75.27
2022-11-25T22:52:56.521Z,74.90
2022-11-25T22:55:29.473Z,74.93
2022-11-25T22:58:04.167Z,75.44
2022-11-25T23:00:40.996Z,75.43
2022-11-25T23:03:19.661Z,75.32
2022-11-25T23:05:52.479Z,75.23
2022-11-25T23:08:25.054Z,75.68
2022-11-25T23:10:57.085Z,75.36
2022-11-25T23:13:29.072Z,75.03
2022-11-25T23:16:02.177Z,75.02
2022-11-25T23:18:38.584Z,75.22
2022-11-25T23:21:18.168Z,75.51
2022-11-25T23:23:49.829Z,75.11
2022-11-25T23:29:09.525Z,75.12
2022-11-25T23:31:41.811Z,75.48
2022-11-25T23:34:14.771Z,74.73
2022-11-25T23:36:49.238Z,74.98
2022-11-25T23:39:23.468Z,75.14
2022-11-25T23:41:55.271Z,74.70
2022-11-25T23:44:28.856Z,74.82
2022-11-25T23:47:03.207Z,74.40
2022-11-25T23:49:38.162Z,74.65
2022-11-25T23:52:14.168Z,74.94
2022-11-25T23:54:47.653Z,74.73
2022-11-25T23:57:19.917Z,74.86
2022-11-25T23:59:51.692Z,74.64
